Terminal Aerodrome Forecast
Issued by NWS King Salmon, AK

Home | Current Version | Previous Version | Text Only | Print | Product List | Glossary On
Versions: 1 2 3 4 5 6 7 8 9 10 11 12 13 14 15 16 17 18 19 20 21 22 23 24 25 26 27 28 29 30 31 32 33 34 35 36 37 38 39
000
FTAK31 PANC 031833 AAA
TAFAKN
TAF AMD
PAKN 031833Z 0319/0418 09009KT 3SM RA BR OVC015
      TEMPO 0319/0322 P6SM NSW BKN015 OVC025
     FM040000 16009KT 5SM -RA OVC012
     FM040900 21007KT 2SM -RA BR SCT005 OVC008=

USA.gov is the U.S. government's official web portal to all federal, state and local government web resources and services.